Time;durP1;ratioP1;P1;durP2;ratioP2;P2;SDS_P1;SDS_P2;PMS_P1;PMS_P2;Temp;Humidity;BMP_temperature;BMP_pressure;BME280_temperature;BME280_humidity;BME280_pressure;Samples;Min_cycle;Max_cycle;Signal;HPM_P1;HPM_P2
2023/01/29 00:01:29;;;;;;;1.30;1.20;;;-1.10;97.30;;;;;;5056874;28;20417;-88
2023/01/29 00:03:54;;;;;;;1.53;1.43;;;-1.20;97.30;;;;;;5056790;28;20182;-89
2023/01/29 00:06:22;;;;;;;1.53;1.43;;;-1.20;97.30;;;;;;5057396;28;20434;-88
2023/01/29 00:08:47;;;;;;;1.83;1.27;;;-1.20;97.30;;;;;;5057134;28;20588;-88
2023/01/29 00:11:13;;;;;;;1.37;1.30;;;-1.20;97.30;;;;;;5056822;28;20414;-91
2023/01/29 00:13:38;;;;;;;2.07;1.93;;;-1.20;97.30;;;;;;5057035;28;20171;-88
2023/01/29 00:16:04;;;;;;;2.40;2.20;;;-1.30;97.30;;;;;;5056781;28;20227;-88
2023/01/29 00:18:30;;;;;;;2.13;1.97;;;-1.30;97.30;;;;;;5057592;28;20551;-88
2023/01/29 00:20:56;;;;;;;1.60;1.50;;;-1.30;97.30;;;;;;5057218;28;20655;-90
2023/01/29 00:23:21;;;;;;;1.53;1.43;;;-1.30;97.30;;;;;;5056751;28;20817;-88
2023/01/29 00:25:47;;;;;;;1.10;1.00;;;-1.30;97.30;;;;;;5057485;28;20421;-88
2023/01/29 00:28:13;;;;;;;1.40;1.30;;;-1.30;97.30;;;;;;5056156;28;20202;-90
2023/01/29 00:30:39;;;;;;;1.30;1.20;;;-1.40;97.30;;;;;;5056429;28;20179;-88
2023/01/29 00:33:05;;;;;;;1.93;1.83;;;-1.40;97.30;;;;;;5057471;28;20470;-89
2023/01/29 00:35:31;;;;;;;1.10;1.00;;;-1.40;97.30;;;;;;5056999;28;20422;-88
2023/01/29 00:37:58;;;;;;;1.90;1.73;;;-1.40;97.30;;;;;;5056567;28;20214;-90
2023/01/29 00:40:25;;;;;;;2.43;2.23;;;-1.40;97.30;;;;;;5056965;28;20432;-88
2023/01/29 00:45:37;;;;;;;3.23;2.33;;;-1.40;97.30;;;;;;5074701;28;20425;-89
2023/01/29 00:48:03;;;;;;;1.90;1.40;;;-1.50;97.30;;;;;;5056877;28;20418;-89
2023/01/29 00:50:30;;;;;;;3.67;1.50;;;-1.50;97.30;;;;;;5056378;28;20410;-89
2023/01/29 00:52:55;;;;;;;2.07;1.93;;;-1.50;97.30;;;;;;5057422;28;20414;-88
2023/01/29 00:55:21;;;;;;;1.93;1.83;;;-1.50;97.30;;;;;;5056588;28;20436;-89
2023/01/29 00:57:47;;;;;;;1.20;1.10;;;-1.50;97.30;;;;;;5056558;28;20206;-89
2023/01/29 01:00:15;;;;;;;7.10;2.07;;;-1.50;97.30;;;;;;5056882;28;20645;-88
2023/01/29 01:05:25;;;;;;;1.80;1.70;;;-1.60;97.30;;;;;;5074617;28;20467;-88
2023/01/29 01:07:52;;;;;;;1.27;1.17;;;-1.60;97.30;;;;;;5056630;28;20850;-89
2023/01/29 01:10:31;;;;;;;2.50;1.47;;;-1.60;97.30;;;;;;5056170;28;20171;-88
2023/01/29 01:13:03;;;;;;;2.37;2.20;;;-1.60;97.30;;;;;;5056546;28;20428;-89
2023/01/29 01:15:37;;;;;;;1.30;1.20;;;-1.60;97.30;;;;;;5056689;28;20516;-88
2023/01/29 01:18:03;;;;;;;1.20;1.10;;;-1.70;97.30;;;;;;5055927;28;20437;-89
2023/01/29 01:20:31;;;;;;;1.40;1.30;;;-1.70;97.30;;;;;;5052607;28;20434;-89
2023/01/29 01:22:56;;;;;;;1.40;1.30;;;-1.70;97.30;;;;;;5036098;28;20460;-88
2023/01/29 01:25:23;;;;;;;3.77;3.57;;;-1.70;97.30;;;;;;5035329;28;20415;-88
2023/01/29 01:27:52;;;;;;;4.83;1.53;;;-1.70;97.30;;;;;;5035436;28;20282;-89
2023/01/29 01:30:18;;;;;;;1.63;1.53;;;-1.80;97.30;;;;;;5036215;28;20430;-88
2023/01/29 01:32:43;;;;;;;1.30;1.20;;;-1.80;97.30;;;;;;5035740;28;20921;-88
2023/01/29 01:35:10;;;;;;;2.70;2.50;;;-1.80;97.30;;;;;;5036715;28;20219;-90
2023/01/29 01:37:38;;;;;;;1.70;1.60;;;-1.80;97.30;;;;;;5036326;28;20441;-88
2023/01/29 01:40:11;;;;;;;1.87;1.77;;;-1.80;97.30;;;;;;5035854;28;20423;-88
2023/01/29 01:42:39;;;;;;;2.00;1.90;;;-1.80;97.30;;;;;;5036910;28;20500;-91
2023/01/29 01:45:09;;;;;;;1.53;1.43;;;-1.80;97.30;;;;;;5036424;28;20509;-89
2023/01/29 01:47:40;;;;;;;1.03;0.93;;;-1.90;97.30;;;;;;5035883;28;20439;-89
2023/01/29 01:50:15;;;;;;;1.40;1.30;;;-1.90;97.30;;;;;;5036421;28;20418;-89
2023/01/29 01:52:48;;;;;;;2.70;2.50;;;-1.90;97.30;;;;;;5035839;28;20510;-89
2023/01/29 01:55:17;;;;;;;1.33;1.23;;;-1.90;97.30;;;;;;5035643;28;20497;-89
2023/01/29 01:57:46;;;;;;;2.80;2.60;;;-1.80;97.30;;;;;;5036075;28;20505;-89
2023/01/29 02:00:32;;;;;;;3.40;3.20;;;-1.90;97.30;;;;;;5035603;28;20518;-89
2023/01/29 02:12:17;;;;;;;1.20;1.10;;;-1.90;97.30;;;;;;5054065;28;20566;-91
2023/01/29 02:14:53;;;;;;;2.63;2.50;;;-1.90;97.30;;;;;;5035576;28;20423;-88
2023/01/29 02:17:30;;;;;;;2.40;2.20;;;-1.90;97.30;;;;;;5035179;28;20478;-89
2023/01/29 02:20:39;;;;;;;1.20;1.10;;;-1.90;97.30;;;;;;5036078;28;20417;-90
2023/01/29 02:27:40;;;;;;;1.87;1.77;;;-1.90;97.30;;;;;;5044454;22;20638;-89
2023/01/29 02:30:50;;;;;;;1.73;1.63;;;-1.90;97.30;;;;;;5011127;28;20903;-89
2023/01/29 02:37:00;;;;;;;1.40;1.30;;;-2.00;97.30;;;;;;4965398;28;20493;-89
2023/01/29 02:40:20;;;;;;;1.20;1.10;;;-2.00;97.30;;;;;;5052390;28;20589;-88
2023/01/29 02:43:17;;;;;;;1.50;1.40;;;-2.00;97.30;;;;;;4952471;29;20470;-90
2023/01/29 02:46:06;;;;;;;1.80;1.70;;;-2.10;97.30;;;;;;4930655;29;20450;-90
2023/01/29 02:48:59;;;;;;;2.03;1.90;;;-2.10;97.30;;;;;;5029241;28;20411;-89
2023/01/29 02:51:58;;;;;;;1.50;1.40;;;-2.10;97.30;;;;;;5051609;28;20913;-88
2023/01/29 02:54:56;;;;;;;2.70;2.50;;;-2.10;97.30;;;;;;5037837;28;20414;-88
2023/01/29 02:57:56;;;;;;;1.20;1.10;;;-2.10;97.30;;;;;;5046281;28;20492;-89
2023/01/29 03:00:38;;;;;;;3.20;3.00;;;-2.10;97.30;;;;;;5026691;28;20477;-89
2023/01/29 03:03:21;;;;;;;2.20;1.80;;;-2.10;97.30;;;;;;5055155;28;20450;-89
2023/01/29 03:06:05;;;;;;;1.40;1.30;;;-2.10;97.30;;;;;;5039307;28;20940;-89
2023/01/29 03:08:55;;;;;;;4.93;2.33;;;-2.10;97.30;;;;;;5056359;28;20856;-90
2023/01/29 03:11:21;;;;;;;1.40;1.30;;;-2.10;97.30;;;;;;5055193;28;20421;-88
2023/01/29 03:16:55;;;;;;;6.73;4.03;;;-2.20;97.30;;;;;;5042168;28;20620;-89
2023/01/29 03:19:39;;;;;;;1.77;1.70;;;-2.20;97.30;;;;;;5057123;28;20497;-89
2023/01/29 03:22:10;;;;;;;1.67;1.57;;;-2.20;97.30;;;;;;5056802;28;20805;-88
2023/01/29 03:38:51;;;;;;;1.60;1.50;;;-2.30;97.30;;;;;;5094821;28;20492;-90
2023/01/29 03:41:30;;;;;;;2.40;2.20;;;-2.30;97.30;;;;;;5079339;28;20409;-90
2023/01/29 03:44:17;;;;;;;2.30;2.10;;;-2.30;97.30;;;;;;5078749;28;20511;-89
2023/01/29 03:46:55;;;;;;;2.07;1.93;;;-2.30;97.30;;;;;;5077337;28;20490;-89
2023/01/29 03:49:48;;;;;;;1.93;1.73;;;-2.30;97.30;;;;;;5096374;28;20403;-88
2023/01/29 03:52:22;;;;;;;2.57;2.37;;;-2.30;97.30;;;;;;5077928;28;20471;-89
2023/01/29 03:55:16;;;;;;;3.63;3.00;;;-2.30;97.30;;;;;;5079361;28;20898;-89
2023/01/29 03:58:15;;;;;;;1.73;1.63;;;-2.40;97.30;;;;;;5074583;28;20433;-90
2023/01/29 04:01:24;;;;;;;2.77;2.57;;;-2.30;97.30;;;;;;5078583;28;20420;-90
2023/01/29 04:07:01;;;;;;;;;;;;;;;;;;;;;
2023/01/29 04:10:00;;;;;;;1.30;1.20;;;-2.40;97.30;;;;;;5097167;28;20499;-89
2023/01/29 04:13:10;;;;;;;2.00;1.90;;;-2.40;97.30;;;;;;5079292;28;20434;-89
2023/01/29 04:26:11;;;;;;;3.77;3.07;;;-2.40;97.30;;;;;;5033658;28;20977;-89
2023/01/29 04:29:00;;;;;;;1.80;1.70;;;-2.40;97.30;;;;;;5036174;28;20775;-89
2023/01/29 04:31:38;;;;;;;1.40;1.30;;;-2.30;97.30;;;;;;5036403;28;20400;-90
2023/01/29 04:34:28;;;;;;;1.30;1.20;;;-2.30;97.30;;;;;;5034437;28;20937;-89
2023/01/29 04:37:38;;;;;;;4.00;2.27;;;-2.30;97.30;;;;;;5036271;28;20419;-89
2023/01/29 04:40:29;;;;;;;2.07;1.90;;;-2.20;97.30;;;;;;4993928;28;20420;-89
2023/01/29 04:43:19;;;;;;;5.70;2.77;;;-2.20;97.30;;;;;;4998386;28;20577;-89
2023/01/29 04:46:22;;;;;;;2.80;2.07;;;-2.20;97.30;;;;;;5034888;28;20414;-91
2023/01/29 04:49:04;;;;;;;6.93;2.77;;;-2.20;97.30;;;;;;5032351;28;20488;-90
2023/01/29 04:51:59;;;;;;;3.33;3.13;;;-2.20;97.30;;;;;;5035889;28;20442;-90
2023/01/29 04:54:36;;;;;;;1.70;1.60;;;-2.20;97.30;;;;;;5034334;28;20473;-89
2023/01/29 04:57:42;;;;;;;1.40;1.30;;;-2.20;97.30;;;;;;5046048;28;20444;-91
2023/01/29 05:00:19;;;;;;;1.63;1.53;;;-2.20;97.30;;;;;;5054197;28;20460;-89
2023/01/29 05:02:49;;;;;;;2.13;1.97;;;-2.20;97.30;;;;;;5053264;28;20557;-90
2023/01/29 05:05:21;;;;;;;2.07;1.93;;;-2.20;97.30;;;;;;5054242;28;20418;-89
2023/01/29 05:07:49;;;;;;;1.60;1.50;;;-2.20;97.30;;;;;;5055118;28;20434;-90
2023/01/29 05:10:19;;;;;;;2.07;1.87;;;-2.20;97.30;;;;;;5054164;28;20415;-89
2023/01/29 05:13:10;;;;;;;8.33;2.57;;;-2.20;97.30;;;;;;5054735;28;20507;-89
2023/01/29 05:15:49;;;;;;;1.70;1.60;;;-2.20;97.30;;;;;;5048682;28;20425;-89
2023/01/29 05:18:15;;;;;;;2.77;1.93;;;-2.20;97.30;;;;;;5087190;22;20497;-87
2023/01/29 05:20:42;;;;;;;1.80;1.63;;;-2.20;97.30;;;;;;5054435;28;20421;-87
2023/01/29 05:23:16;;;;;;;1.43;1.33;;;-2.10;97.30;;;;;;5054065;28;20978;-86
2023/01/29 05:25:42;;;;;;;2.70;2.50;;;-2.10;97.30;;;;;;5054168;28;20767;-86
2023/01/29 05:28:15;;;;;;;4.40;3.00;;;-2.10;97.30;;;;;;5039020;28;20445;-88
2023/01/29 05:30:43;;;;;;;5.80;3.13;;;-2.10;97.30;;;;;;5033977;28;20164;-86
2023/01/29 05:33:20;;;;;;;1.50;1.40;;;-2.10;97.30;;;;;;5034110;28;20430;-87
2023/01/29 05:35:47;;;;;;;2.50;2.30;;;-2.10;97.30;;;;;;5051867;28;20430;-86
2023/01/29 05:38:13;;;;;;;2.70;2.50;;;-2.10;97.30;;;;;;5033829;28;20447;-87
2023/01/29 05:40:39;;;;;;;1.70;1.60;;;-2.10;97.30;;;;;;5051542;28;20463;-87
2023/01/29 05:43:11;;;;;;;1.20;1.10;;;-2.10;97.30;;;;;;5033781;28;20958;-87
2023/01/29 05:45:37;;;;;;;2.70;2.00;;;-2.10;97.30;;;;;;5033788;28;20640;-87
2023/01/29 05:48:02;;;;;;;3.33;1.80;;;-2.10;97.30;;;;;;5033562;28;20438;-87
2023/01/29 05:50:28;;;;;;;1.30;1.20;;;-2.10;97.30;;;;;;5033584;28;20671;-87
2023/01/29 05:52:58;;;;;;;6.00;2.23;;;-2.10;97.30;;;;;;5051735;28;20183;-87
2023/01/29 05:55:23;;;;;;;1.47;1.37;;;-2.10;97.30;;;;;;5033730;28;20171;-87
2023/01/29 05:57:49;;;;;;;1.70;1.60;;;-2.10;97.30;;;;;;5034013;28;20983;-87
2023/01/29 06:00:15;;;;;;;4.60;2.90;;;-2.10;97.30;;;;;;5033459;28;20182;-86
2023/01/29 06:02:40;;;;;;;1.60;1.50;;;-2.10;97.30;;;;;;5033515;28;20410;-86
2023/01/29 06:05:06;;;;;;;1.77;1.67;;;-2.10;97.30;;;;;;5033411;28;20863;-87
2023/01/29 06:07:32;;;;;;;3.07;2.87;;;-2.10;97.30;;;;;;5050961;28;20195;-87
2023/01/29 06:09:57;;;;;;;9.50;2.70;;;-2.10;97.30;;;;;;5033237;28;20368;-86
2023/01/29 06:12:22;;;;;;;3.90;2.90;;;-2.10;97.30;;;;;;5051183;28;20274;-87
2023/01/29 06:14:48;;;;;;;2.37;2.17;;;-2.10;97.30;;;;;;5033060;28;20785;-87
2023/01/29 06:17:13;;;;;;;1.93;1.83;;;-2.10;97.30;;;;;;5032738;28;20603;-86
2023/01/29 06:19:39;;;;;;;3.73;3.53;;;-2.10;97.30;;;;;;5017325;28;20176;-86
2023/01/29 06:22:04;;;;;;;1.50;1.40;;;-2.10;97.30;;;;;;5012423;28;20766;-87
2023/01/29 06:24:31;;;;;;;8.07;3.67;;;-2.10;97.30;;;;;;5013723;28;20173;-87
2023/01/29 06:26:57;;;;;;;2.97;2.80;;;-2.10;97.30;;;;;;5013214;28;20223;-87
2023/01/29 06:29:22;;;;;;;2.40;2.20;;;-2.00;97.30;;;;;;5013522;28;20454;-87
2023/01/29 06:31:47;;;;;;;2.67;2.50;;;-2.00;97.30;;;;;;5013329;28;20176;-87
2023/01/29 06:34:13;;;;;;;6.00;4.30;;;-2.00;97.30;;;;;;5014063;28;20195;-87
2023/01/29 06:36:40;;;;;;;2.23;2.03;;;-2.00;97.30;;;;;;5032894;28;20203;-87
2023/01/29 06:39:06;;;;;;;1.20;1.10;;;-2.00;97.30;;;;;;5050523;28;20168;-86
2023/01/29 06:41:31;;;;;;;2.50;2.30;;;-2.00;97.30;;;;;;5033065;28;20483;-87
2023/01/29 06:43:57;;;;;;;2.80;2.60;;;-2.00;97.30;;;;;;5050911;28;20662;-86
2023/01/29 06:46:22;;;;;;;3.20;3.00;;;-2.00;97.30;;;;;;5032907;28;20663;-86
2023/01/29 06:48:48;;;;;;;3.27;3.07;;;-2.00;97.30;;;;;;5033352;28;20313;-87
2023/01/29 06:51:13;;;;;;;2.23;2.07;;;-1.90;97.30;;;;;;5033225;28;20206;-87
2023/01/29 06:53:39;;;;;;;4.37;3.57;;;-1.90;97.30;;;;;;5030549;28;20530;-88
2023/01/29 06:56:06;;;;;;;2.90;2.70;;;-1.90;97.30;;;;;;5046903;28;20233;-87
2023/01/29 06:58:31;;;;;;;8.23;2.90;;;-1.90;97.30;;;;;;5026194;28;20306;-88
2023/01/29 07:01:06;;;;;;;2.17;1.97;;;-1.90;97.30;;;;;;5027631;28;21000;-87
2023/01/29 07:03:32;;;;;;;1.80;1.70;;;-1.90;97.30;;;;;;5029458;28;20218;-87
2023/01/29 07:05:57;;;;;;;2.40;2.20;;;-1.90;97.30;;;;;;5029395;28;20414;-87
2023/01/29 07:08:23;;;;;;;1.50;1.40;;;-1.90;97.30;;;;;;5047523;28;20507;-86
2023/01/29 07:10:49;;;;;;;1.33;1.23;;;-1.80;97.30;;;;;;5030698;28;20202;-88
2023/01/29 07:13:15;;;;;;;3.00;2.80;;;-1.80;97.30;;;;;;5047637;28;20243;-88
2023/01/29 07:15:41;;;;;;;4.93;3.80;;;-1.80;97.30;;;;;;5028503;28;20809;-88
2023/01/29 07:18:11;;;;;;;1.90;1.50;;;-1.70;97.30;;;;;;5027065;28;20500;-88
2023/01/29 07:20:38;;;;;;;2.37;2.17;;;-1.70;97.30;;;;;;5028088;28;20437;-88
2023/01/29 07:23:04;;;;;;;1.57;1.47;;;-1.70;97.30;;;;;;5032054;28;20445;-88
2023/01/29 07:25:30;;;;;;;2.57;2.43;;;-1.70;97.30;;;;;;5031838;28;20509;-87
2023/01/29 07:27:59;;;;;;;1.63;1.50;;;-1.70;97.30;;;;;;5032098;28;20522;-88
2023/01/29 07:30:25;;;;;;;2.63;2.03;;;-1.60;97.30;;;;;;5031372;28;20203;-87
2023/01/29 07:32:50;;;;;;;4.00;2.27;;;-1.60;97.30;;;;;;5032303;28;20456;-87
2023/01/29 07:35:16;;;;;;;1.27;1.20;;;-1.60;97.30;;;;;;5032507;28;20638;-87
2023/01/29 07:37:41;;;;;;;3.20;3.00;;;-1.60;97.30;;;;;;5032977;28;20216;-87
2023/01/29 07:40:10;;;;;;;3.47;2.53;;;-1.50;97.30;;;;;;5036467;28;20229;-88
2023/01/29 07:42:36;;;;;;;3.80;3.60;;;-1.50;97.30;;;;;;5035701;28;20207;-88
2023/01/29 07:45:02;;;;;;;1.70;1.60;;;-1.50;97.30;;;;;;5036062;28;20426;-87
2023/01/29 07:47:27;;;;;;;1.50;1.40;;;-1.50;97.30;;;;;;5035686;28;20483;-87
2023/01/29 07:49:52;;;;;;;7.03;3.17;;;-1.50;97.30;;;;;;5036014;28;20259;-87
2023/01/29 07:52:18;;;;;;;3.80;2.60;;;-1.40;97.30;;;;;;5055127;28;20618;-87
2023/01/29 07:54:43;;;;;;;2.23;2.03;;;-1.40;97.30;;;;;;5054185;28;20258;-87
2023/01/29 07:57:09;;;;;;;2.53;2.33;;;-1.40;97.30;;;;;;5054057;28;20200;-87
2023/01/29 07:59:34;;;;;;;1.20;1.10;;;-1.40;97.30;;;;;;5035996;28;20175;-87
2023/01/29 08:02:00;;;;;;;2.70;2.50;;;-1.40;97.30;;;;;;5035720;28;20207;-87
2023/01/29 08:04:25;;;;;;;16.37;3.80;;;-1.50;97.30;;;;;;5036260;28;20382;-88
2023/01/29 08:06:51;;;;;;;1.80;1.70;;;-1.50;97.30;;;;;;5035816;28;20192;-87
2023/01/29 08:09:16;;;;;;;3.43;3.00;;;-1.50;97.30;;;;;;5035859;28;20555;-87
2023/01/29 08:11:42;;;;;;;2.43;2.23;;;-1.50;97.30;;;;;;5036037;28;20179;-87
2023/01/29 08:14:08;;;;;;;2.50;2.30;;;-1.50;97.30;;;;;;5036448;28;20176;-88
2023/01/29 08:16:34;;;;;;;2.70;2.50;;;-1.40;97.30;;;;;;5035492;28;20183;-86
2023/01/29 08:19:01;;;;;;;2.50;2.40;;;-1.40;97.30;;;;;;5036185;28;20426;-87
2023/01/29 08:21:27;;;;;;;3.93;3.80;;;-1.40;97.30;;;;;;5035951;28;20949;-87
2023/01/29 08:23:52;;;;;;;9.37;3.53;;;-1.40;97.30;;;;;;5035838;28;20458;-87
2023/01/29 08:26:18;;;;;;;1.53;1.50;;;-1.40;97.30;;;;;;5035860;28;20253;-87
2023/01/29 08:28:43;;;;;;;3.33;2.63;;;-1.40;97.30;;;;;;5035602;28;20197;-87
2023/01/29 08:31:16;;;;;;;1.40;1.30;;;-1.30;97.30;;;;;;5034811;28;20176;-86
2023/01/29 08:33:42;;;;;;;9.40;4.53;;;-1.30;97.30;;;;;;5036818;28;20186;-87
2023/01/29 08:36:08;;;;;;;2.63;2.47;;;-1.30;97.30;;;;;;5036691;28;20797;-87
2023/01/29 08:38:34;;;;;;;3.60;3.40;;;-1.30;97.30;;;;;;5035345;28;20230;-87
2023/01/29 08:40:59;;;;;;;1.80;1.70;;;-1.30;97.30;;;;;;5036507;28;20454;-87
2023/01/29 08:43:25;;;;;;;3.73;3.53;;;-1.30;97.30;;;;;;5035365;28;20188;-87
2023/01/29 08:45:50;;;;;;;2.30;2.07;;;-1.30;97.30;;;;;;5054746;28;20206;-88
2023/01/29 08:48:16;;;;;;;2.40;2.20;;;-1.20;97.30;;;;;;5036609;28;20286;-87
2023/01/29 08:50:41;;;;;;;1.43;1.33;;;-1.20;97.30;;;;;;5034686;28;20543;-87
2023/01/29 08:53:08;;;;;;;2.40;2.20;;;-1.20;97.30;;;;;;5053614;28;20183;-88
2023/01/29 08:55:38;;;;;;;2.87;2.60;;;-1.20;97.30;;;;;;5035276;28;20191;-88
2023/01/29 08:58:05;;;;;;;3.77;2.30;;;-1.10;97.30;;;;;;5052257;28;20900;-88
2023/01/29 09:00:35;;;;;;;11.73;4.40;;;-1.10;97.30;;;;;;5034831;28;20967;-88
2023/01/29 09:03:00;;;;;;;1.83;1.73;;;-1.10;97.30;;;;;;5034149;28;20494;-88
2023/01/29 09:05:27;;;;;;;2.43;2.13;;;-1.10;97.30;;;;;;5034029;28;20496;-89
2023/01/29 09:07:53;;;;;;;13.53;4.00;;;-1.10;97.30;;;;;;5036025;28;20342;-88
2023/01/29 09:10:19;;;;;;;4.20;2.70;;;-1.10;97.30;;;;;;5035950;28;20414;-88
2023/01/29 09:12:44;;;;;;;9.20;2.47;;;-1.10;97.30;;;;;;5038405;28;20505;-88
2023/01/29 09:15:10;;;;;;;4.60;2.60;;;-1.10;97.30;;;;;;5036339;28;20205;-88
2023/01/29 09:17:35;;;;;;;9.13;2.97;;;-1.10;97.30;;;;;;5035310;28;20224;-88
2023/01/29 09:20:01;;;;;;;1.60;1.50;;;-1.00;97.30;;;;;;5035761;28;20929;-88
2023/01/29 09:22:27;;;;;;;4.93;4.63;;;-1.00;97.30;;;;;;5035661;28;20208;-88
2023/01/29 09:24:52;;;;;;;3.17;2.97;;;-1.00;97.30;;;;;;5053239;28;20176;-89
2023/01/29 09:27:18;;;;;;;1.30;1.20;;;-1.00;97.30;;;;;;5035827;28;20442;-88
2023/01/29 09:29:43;;;;;;;3.50;2.47;;;-1.00;97.30;;;;;;5035524;28;20227;-87
2023/01/29 09:32:09;;;;;;;3.30;3.10;;;-0.90;97.30;;;;;;5038427;28;20176;-87
2023/01/29 09:34:34;;;;;;;4.90;4.63;;;-0.90;97.30;;;;;;5035672;28;20176;-89
2023/01/29 09:37:00;;;;;;;11.63;5.37;;;-0.90;97.30;;;;;;5035178;28;20199;-89
2023/01/29 09:39:25;;;;;;;11.40;2.87;;;-0.90;97.30;;;;;;5035482;28;20179;-89
2023/01/29 09:42:20;;;;;;;2.40;2.03;;;-0.80;97.30;;;;;;5035289;28;20182;-90
2023/01/29 09:45:03;;;;;;;10.10;4.00;;;-0.80;97.30;;;;;;5035326;28;20190;-89
2023/01/29 09:47:32;;;;;;;3.87;3.67;;;-0.80;97.30;;;;;;5035258;28;20443;-90
2023/01/29 09:50:00;;;;;;;1.60;1.50;;;-0.70;97.30;;;;;;5035154;28;20418;-89
2023/01/29 09:52:31;;;;;;;5.60;2.80;;;-0.70;97.30;;;;;;5035465;28;20422;-89
2023/01/29 09:55:21;;;;;;;2.53;2.33;;;-0.70;97.30;;;;;;5053545;28;20411;-89
2023/01/29 09:57:59;;;;;;;6.23;4.30;;;-0.70;97.30;;;;;;5035623;28;20446;-88
2023/01/29 10:00:45;;;;;;;6.47;3.27;;;-0.70;97.30;;;;;;5035922;28;20418;-88
2023/01/29 10:03:47;;;;;;;8.73;2.33;;;-0.60;97.30;;;;;;5058183;28;20969;-88
2023/01/29 10:06:15;;;;;;;2.80;2.63;;;-0.60;97.30;;;;;;5041661;28;20482;-88
2023/01/29 10:09:12;;;;;;;4.83;3.93;;;-0.60;97.30;;;;;;5036164;28;20438;-88
2023/01/29 10:11:52;;;;;;;2.27;1.93;;;-0.50;97.30;;;;;;5060522;28;20770;-88
2023/01/29 10:14:44;;;;;;;1.40;1.30;;;-0.40;97.30;;;;;;5035743;28;20425;-89
2023/01/29 10:17:48;;;;;;;5.07;2.97;;;-0.40;97.30;;;;;;5034350;28;20462;-88
2023/01/29 10:20:29;;;;;;;3.97;3.77;;;-0.40;97.30;;;;;;5024506;28;20427;-88
2023/01/29 10:23:02;;;;;;;6.00;1.97;;;-0.40;97.30;;;;;;5013884;28;20672;-88
2023/01/29 10:25:28;;;;;;;2.93;1.77;;;-0.40;97.30;;;;;;5014648;28;20431;-88
2023/01/29 10:28:19;;;;;;;2.17;2.00;;;-0.30;97.30;;;;;;5015038;28;20470;-88
2023/01/29 10:31:20;;;;;;;1.70;1.60;;;-0.30;97.30;;;;;;5000602;28;20434;-89
2023/01/29 10:37:41;;;;;;;4.87;2.73;;;-0.30;97.30;;;;;;4965237;28;20453;-88
2023/01/29 10:40:20;;;;;;;4.93;4.13;;;-0.20;97.30;;;;;;5015168;28;20415;-87
2023/01/29 10:43:39;;;;;;;6.70;3.50;;;-0.20;97.30;;;;;;5015767;28;20454;-88
2023/01/29 10:46:39;;;;;;;3.33;3.13;;;-0.20;97.30;;;;;;5015089;28;20426;-87
2023/01/29 10:49:49;;;;;;;2.67;2.07;;;-0.10;97.30;;;;;;5015483;28;20569;-88
2023/01/29 10:52:45;;;;;;;5.73;5.43;;;0.00;97.30;;;;;;5010356;28;20427;-88
2023/01/29 10:55:27;;;;;;;3.73;3.53;;;0.00;97.30;;;;;;5015245;28;20426;-88
2023/01/29 10:58:14;;;;;;;2.23;2.03;;;0.00;97.30;;;;;;5014183;28;20439;-88
2023/01/29 11:00:41;;;;;;;7.47;3.60;;;0.00;97.30;;;;;;5014621;28;20797;-86
2023/01/29 11:03:25;;;;;;;5.77;3.00;;;0.10;97.30;;;;;;5015592;28;20490;-88
2023/01/29 11:06:04;;;;;;;3.37;3.20;;;0.10;97.30;;;;;;5014945;28;20419;-88
2023/01/29 11:09:02;;;;;;;2.57;2.37;;;0.10;97.30;;;;;;5014644;28;20957;-88
2023/01/29 11:11:42;;;;;;;5.70;3.50;;;0.20;97.30;;;;;;4997268;28;20462;-88
2023/01/29 11:14:38;;;;;;;2.33;2.13;;;0.20;97.30;;;;;;5017555;28;20459;-88
2023/01/29 11:17:18;;;;;;;7.13;3.30;;;0.20;97.30;;;;;;5069820;22;20492;-86
2023/01/29 11:19:50;;;;;;;4.07;3.83;;;0.30;97.30;;;;;;5055347;28;20717;-86
2023/01/29 11:22:18;;;;;;;8.10;4.20;;;0.30;97.30;;;;;;5057767;28;20453;-88
2023/01/29 11:25:17;;;;;;;3.77;3.57;;;0.40;97.30;;;;;;5040080;28;20564;-89
2023/01/29 11:27:47;;;;;;;2.00;1.60;;;0.40;97.30;;;;;;5039280;28;21021;-89
2023/01/29 11:30:37;;;;;;;5.23;4.63;;;0.50;97.30;;;;;;5040004;28;20481;-88
2023/01/29 11:33:22;;;;;;;1.60;1.50;;;0.60;97.30;;;;;;5056040;28;20395;-88
2023/01/29 11:35:47;;;;;;;4.33;3.83;;;0.60;97.30;;;;;;5039629;28;20467;-90
2023/01/29 11:38:28;;;;;;;1.50;1.30;;;0.70;97.30;;;;;;5039569;28;20442;-90
2023/01/29 11:41:21;;;;;;;3.93;3.77;;;0.80;97.30;;;;;;5039441;28;20207;-89
2023/01/29 11:43:50;;;;;;;4.47;3.37;;;0.80;97.30;;;;;;5039807;28;20454;-89
2023/01/29 11:46:18;;;;;;;3.93;3.73;;;0.90;97.30;;;;;;5039090;28;20468;-86
2023/01/29 11:48:50;;;;;;;1.27;1.17;;;0.90;97.30;;;;;;5039267;28;20480;-87
2023/01/29 11:51:27;;;;;;;3.10;2.90;;;0.90;97.30;;;;;;5039176;28;20489;-88
2023/01/29 11:53:59;;;;;;;9.33;4.37;;;0.90;97.30;;;;;;5056499;28;20393;-88
2023/01/29 11:56:31;;;;;;;2.00;1.90;;;1.00;97.30;;;;;;5039242;28;20430;-87
2023/01/29 11:58:57;;;;;;;3.57;3.40;;;1.00;97.30;;;;;;5038780;28;20433;-88
2023/01/29 12:01:39;;;;;;;4.10;1.80;;;1.10;97.30;;;;;;5038890;28;20439;-89
2023/01/29 12:04:18;;;;;;;4.30;3.63;;;1.10;97.30;;;;;;5039032;28;20426;-88
2023/01/29 12:06:47;;;;;;;2.03;1.90;;;1.10;97.30;;;;;;5039180;28;20419;-87
2023/01/29 12:09:29;;;;;;;1.90;1.80;;;1.10;97.30;;;;;;5039376;28;20410;-85
2023/01/29 12:12:49;;;;;;;3.63;3.27;;;1.10;97.30;;;;;;5038610;28;20411;-86
2023/01/29 12:15:21;;;;;;;2.70;2.50;;;1.10;97.30;;;;;;4938771;29;20423;-88
2023/01/29 12:17:55;;;;;;;4.93;3.63;;;1.00;97.30;;;;;;5037572;28;20475;-87
2023/01/29 12:20:29;;;;;;;2.13;1.87;;;1.00;97.30;;;;;;5036863;28;20431;-86
2023/01/29 12:23:22;;;;;;;5.20;3.57;;;1.00;97.30;;;;;;5037757;28;20448;-88
2023/01/29 12:26:01;;;;;;;2.70;2.50;;;1.00;97.30;;;;;;5036361;28;20419;-87
2023/01/29 12:28:45;;;;;;;3.43;1.67;;;1.10;97.30;;;;;;5037096;28;20987;-86
2023/01/29 12:31:21;;;;;;;6.03;3.00;;;1.30;97.30;;;;;;5055252;28;20406;-88
2023/01/29 12:34:01;;;;;;;6.00;2.80;;;1.40;97.30;;;;;;5036771;28;20439;-87
2023/01/29 12:36:35;;;;;;;1.20;1.10;;;1.40;97.30;;;;;;5037205;28;20421;-87
2023/01/29 12:39:01;;;;;;;2.50;2.30;;;1.40;97.30;;;;;;5037533;28;20434;-87
2023/01/29 12:41:38;;;;;;;3.77;3.53;;;1.40;97.30;;;;;;5055155;28;20460;-87
2023/01/29 12:44:15;;;;;;;7.50;3.20;;;1.40;97.30;;;;;;5037570;28;20214;-87
2023/01/29 12:47:05;;;;;;;8.83;2.70;;;1.50;97.30;;;;;;5021538;28;20418;-86
2023/01/29 12:49:34;;;;;;;2.60;2.40;;;1.50;97.30;;;;;;5036208;28;20932;-89
2023/01/29 12:52:06;;;;;;;2.53;2.37;;;1.50;97.30;;;;;;5036879;28;20446;-86
2023/01/29 12:54:38;;;;;;;4.00;2.80;;;1.50;97.30;;;;;;5056176;28;20957;-88
2023/01/29 12:57:12;;;;;;;2.73;1.93;;;1.60;97.30;;;;;;5056635;28;20509;-87
2023/01/29 12:59:48;;;;;;;2.43;2.23;;;1.50;97.30;;;;;;5056944;28;20421;-90
2023/01/29 13:02:35;;;;;;;2.13;1.97;;;1.40;97.30;;;;;;5056468;28;20456;-88
2023/01/29 13:05:23;;;;;;;2.73;2.60;;;1.40;97.30;;;;;;5056985;28;20457;-88
2023/01/29 13:08:00;;;;;;;5.83;3.13;;;1.40;97.30;;;;;;5057214;28;20570;-87
2023/01/29 13:10:31;;;;;;;1.70;1.60;;;1.40;97.30;;;;;;5057160;28;20413;-88
2023/01/29 13:13:03;;;;;;;1.10;1.00;;;1.30;97.30;;;;;;5057602;28;20413;-88
2023/01/29 13:15:35;;;;;;;5.07;2.77;;;1.30;97.30;;;;;;5056950;28;20417;-88
2023/01/29 13:18:32;;;;;;;2.40;2.20;;;1.30;97.30;;;;;;5056412;28;20470;-90
2023/01/29 13:20:59;;;;;;;5.77;3.37;;;1.30;97.30;;;;;;5057043;28;20430;-88
2023/01/29 13:23:35;;;;;;;2.27;2.07;;;1.40;97.30;;;;;;5074198;28;20501;-89
2023/01/29 13:26:02;;;;;;;4.40;3.57;;;1.40;97.30;;;;;;5056943;28;21141;-87
2023/01/29 13:28:28;;;;;;;2.37;2.17;;;1.40;97.30;;;;;;5056504;28;20829;-89
2023/01/29 13:31:19;;;;;;;2.03;1.90;;;1.40;97.30;;;;;;5056183;28;20406;-87
2023/01/29 13:34:06;;;;;;;1.43;1.33;;;1.40;97.30;;;;;;5056239;28;20208;-89
2023/01/29 13:36:32;;;;;;;3.83;2.73;;;1.40;97.30;;;;;;5035982;28;20832;-88
2023/01/29 13:39:05;;;;;;;3.33;2.77;;;1.40;97.30;;;;;;5035953;28;20792;-85
2023/01/29 13:41:41;;;;;;;2.83;2.63;;;1.50;97.30;;;;;;5035730;28;20998;-85
2023/01/29 13:44:28;;;;;;;1.87;1.83;;;1.50;97.30;;;;;;5035705;28;20424;-86
2023/01/29 13:47:02;;;;;;;3.00;2.43;;;1.50;97.30;;;;;;5053447;28;20399;-89
2023/01/29 13:49:45;;;;;;;6.33;3.83;;;1.60;97.30;;;;;;5035493;28;20410;-86
2023/01/29 13:52:26;;;;;;;3.07;2.87;;;1.60;97.30;;;;;;5035179;28;20410;-87
2023/01/29 13:54:57;;;;;;;2.63;2.43;;;1.60;97.30;;;;;;5036004;28;20968;-87
2023/01/29 13:57:49;;;;;;;5.03;2.47;;;1.60;97.30;;;;;;5036137;28;20466;-87
2023/01/29 14:00:21;;;;;;;3.00;2.80;;;1.50;97.30;;;;;;5035970;28;20418;-88
2023/01/29 14:03:12;;;;;;;6.30;2.70;;;1.50;97.30;;;;;;5036522;28;20482;-88
2023/01/29 14:05:43;;;;;;;2.70;2.50;;;1.60;97.30;;;;;;5030519;28;20430;-87
2023/01/29 14:08:11;;;;;;;7.30;4.87;;;1.50;97.30;;;;;;5036427;28;20431;-87
2023/01/29 14:10:37;;;;;;;3.40;3.20;;;1.50;97.30;;;;;;5035944;28;20417;-87
2023/01/29 14:13:02;;;;;;;2.60;1.80;;;1.50;97.30;;;;;;5035931;28;20414;-88
2023/01/29 14:15:41;;;;;;;2.90;2.47;;;1.50;97.30;;;;;;5044674;28;20214;-90
2023/01/29 14:18:20;;;;;;;3.83;3.20;;;1.50;97.30;;;;;;5074351;28;20227;-88
2023/01/29 14:20:46;;;;;;;9.03;2.43;;;1.40;97.30;;;;;;5074587;28;20421;-88
2023/01/29 14:23:26;;;;;;;3.20;2.97;;;1.50;97.30;;;;;;5084971;28;20439;-90
2023/01/29 14:25:51;;;;;;;4.60;4.30;;;1.50;97.30;;;;;;5076562;28;20163;-89